Time;durP1;ratioP1;P1;durP2;ratioP2;P2;SDS_P1;SDS_P2;PMS_P1;PMS_P2;Temp;Humidity;BMP_temperature;BMP_pressure;BME280_temperature;BME280_humidity;BME280_pressure;Samples;Min_cycle;Max_cycle;Signal;HPM_P1;HPM_P2
2021/12/29 00:00:10;;;;;;;7.93;1.10;;;7.70;99.90;;;;;;5071398;28;20139;-68
2021/12/29 00:02:38;;;;;;;5.25;0.95;;;7.60;99.90;;;;;;5071679;28;20122;-68
2021/12/29 00:05:06;;;;;;;6.03;1.30;;;7.70;99.90;;;;;;5071054;28;20088;-69
2021/12/29 00:07:33;;;;;;;5.95;1.30;;;7.60;99.90;;;;;;5071607;28;20091;-68
2021/12/29 00:10:01;;;;;;;7.28;1.35;;;7.60;99.90;;;;;;5071114;28;20542;-68
2021/12/29 00:12:29;;;;;;;5.28;1.30;;;7.60;99.90;;;;;;5071472;28;20070;-67
2021/12/29 00:14:57;;;;;;;6.03;1.45;;;7.60;99.90;;;;;;5070966;28;20066;-68
2021/12/29 00:17:24;;;;;;;7.32;1.20;;;7.60;99.90;;;;;;5071107;28;20056;-69
2021/12/29 00:19:53;;;;;;;7.65;1.63;;;7.60;99.90;;;;;;5071320;28;20084;-68
2021/12/29 00:22:20;;;;;;;3.85;0.95;;;7.50;99.90;;;;;;5071011;28;20049;-69
2021/12/29 00:24:46;;;;;;;3.30;0.90;;;7.60;99.90;;;;;;5071189;28;20488;-69
2021/12/29 00:27:13;;;;;;;3.25;1.10;;;7.60;99.90;;;;;;5070680;28;20072;-69
2021/12/29 00:29:41;;;;;;;5.10;1.02;;;7.60;99.90;;;;;;5071508;28;20107;-68
2021/12/29 00:32:08;;;;;;;3.85;0.77;;;7.60;99.90;;;;;;5070965;28;20071;-67
2021/12/29 00:34:35;;;;;;;4.93;1.30;;;7.60;99.90;;;;;;5070994;28;20492;-68
2021/12/29 00:37:04;;;;;;;5.63;0.82;;;7.60;99.90;;;;;;5070602;28;20499;-70
2021/12/29 00:39:31;;;;;;;2.85;0.77;;;7.60;99.90;;;;;;5071239;28;20531;-68
2021/12/29 00:41:58;;;;;;;5.55;1.10;;;7.50;99.90;;;;;;5070634;28;20052;-68
2021/12/29 00:44:25;;;;;;;1.23;0.60;;;7.60;99.90;;;;;;5071009;28;20049;-69
2021/12/29 00:46:54;;;;;;;5.25;1.20;;;7.60;99.90;;;;;;5070540;28;20505;-68
2021/12/29 00:49:29;;;;;;;6.22;0.90;;;7.50;99.90;;;;;;5071099;28;20048;-68
2021/12/29 00:51:56;;;;;;;4.20;1.20;;;7.60;99.90;;;;;;5071064;28;20074;-69
2021/12/29 00:54:25;;;;;;;3.55;1.00;;;7.60;99.90;;;;;;5070553;28;20084;-68
2021/12/29 00:56:52;;;;;;;6.93;1.92;;;7.50;99.90;;;;;;5070307;28;20053;-70
2021/12/29 00:59:19;;;;;;;2.72;0.75;;;7.60;99.90;;;;;;5070812;28;20131;-68
2021/12/29 01:01:46;;;;;;;3.95;0.70;;;7.60;99.90;;;;;;5070625;28;20048;-68
2021/12/29 01:04:14;;;;;;;5.90;1.25;;;7.60;99.90;;;;;;5070804;28;20052;-69
2021/12/29 01:06:41;;;;;;;5.70;1.30;;;7.60;99.90;;;;;;5069881;28;20048;-69
2021/12/29 01:09:10;;;;;;;6.35;1.30;;;7.50;99.90;;;;;;5070814;28;20088;-68
2021/12/29 01:11:39;;;;;;;2.53;1.05;;;7.60;99.90;;;;;;5070552;28;20084;-68
2021/12/29 01:14:08;;;;;;;5.03;1.10;;;7.50;99.90;;;;;;5070594;28;20512;-68
2021/12/29 01:16:41;;;;;;;4.85;1.15;;;7.50;99.90;;;;;;5070001;28;20048;-71
2021/12/29 01:19:12;;;;;;;6.78;1.25;;;7.50;99.90;;;;;;5071004;28;20052;-68
2021/12/29 01:21:41;;;;;;;4.38;1.10;;;7.50;99.90;;;;;;5070806;28;20052;-68
2021/12/29 01:24:09;;;;;;;2.78;0.93;;;7.50;99.90;;;;;;5074008;28;20097;-68
2021/12/29 01:26:38;;;;;;;2.95;0.85;;;7.50;99.90;;;;;;5073510;28;20083;-69
2021/12/29 01:29:05;;;;;;;3.33;0.77;;;7.60;99.90;;;;;;5074198;28;20496;-69
2021/12/29 01:31:32;;;;;;;2.17;0.90;;;7.60;99.90;;;;;;5073978;28;20492;-68
2021/12/29 01:34:04;;;;;;;2.33;0.70;;;7.60;99.90;;;;;;5074064;28;20131;-69
2021/12/29 01:36:31;;;;;;;4.43;0.73;;;7.60;99.90;;;;;;5073906;28;20083;-68
2021/12/29 01:38:58;;;;;;;4.13;0.80;;;7.50;99.90;;;;;;5074384;28;20084;-69
2021/12/29 01:41:25;;;;;;;6.40;1.15;;;7.50;99.90;;;;;;5073850;28;20044;-69
2021/12/29 01:43:56;;;;;;;12.07;0.88;;;7.60;99.90;;;;;;5074324;28;20102;-68
2021/12/29 01:46:23;;;;;;;2.70;0.80;;;7.50;99.90;;;;;;5073304;28;20513;-68
2021/12/29 01:48:50;;;;;;;3.15;1.45;;;7.60;99.90;;;;;;5074000;28;20091;-68
2021/12/29 01:51:19;;;;;;;1.60;0.60;;;7.60;99.90;;;;;;5086835;22;20052;-71
2021/12/29 01:54:00;;;;;;;3.13;0.70;;;7.60;99.90;;;;;;5073835;28;20060;-72
2021/12/29 01:56:27;;;;;;;2.30;0.80;;;7.50;99.90;;;;;;5073237;28;20064;-72
2021/12/29 01:58:56;;;;;;;1.70;0.82;;;7.50;99.90;;;;;;5073423;28;20045;-71
2021/12/29 02:01:23;;;;;;;3.35;0.80;;;7.60;99.90;;;;;;5073150;28;20573;-72
2021/12/29 02:03:55;;;;;;;2.20;0.55;;;7.50;99.90;;;;;;5073249;28;20087;-72
2021/12/29 02:06:22;;;;;;;3.67;0.70;;;7.50;99.90;;;;;;5073152;28;20109;-72
2021/12/29 02:08:54;;;;;;;4.63;0.90;;;7.50;99.90;;;;;;5073552;28;20370;-72
2021/12/29 02:11:29;;;;;;;3.25;0.98;;;7.60;99.90;;;;;;5073454;28;20060;-72
2021/12/29 02:14:02;;;;;;;3.80;0.60;;;7.60;99.90;;;;;;5073435;28;20110;-72
2021/12/29 02:16:32;;;;;;;3.17;0.80;;;7.60;99.90;;;;;;5072794;28;20098;-71
2021/12/29 02:19:02;;;;;;;2.28;0.60;;;7.60;99.90;;;;;;5073059;28;20098;-71
2021/12/29 02:21:32;;;;;;;2.33;0.57;;;7.60;99.90;;;;;;5072580;28;20566;-72
2021/12/29 02:26:49;;;;;;;1.75;0.50;;;7.60;99.90;;;;;;5066575;28;20037;-72
2021/12/29 02:29:18;;;;;;;1.17;0.47;;;7.70;99.90;;;;;;5072850;28;20143;-72
2021/12/29 02:31:46;;;;;;;1.48;0.40;;;7.70;99.90;;;;;;5072589;28;20048;-71
2021/12/29 02:34:16;;;;;;;2.97;0.75;;;7.70;99.90;;;;;;5072518;28;20095;-71
2021/12/29 02:36:48;;;;;;;2.28;0.52;;;7.60;99.90;;;;;;5072446;28;20091;-72
2021/12/29 02:39:19;;;;;;;2.22;0.47;;;7.70;99.90;;;;;;5072779;28;20044;-72
2021/12/29 02:41:51;;;;;;;3.05;0.50;;;7.70;99.90;;;;;;5072593;28;20114;-72
2021/12/29 02:44:25;;;;;;;1.05;0.43;;;7.70;99.90;;;;;;5072863;28;20052;-72
2021/12/29 02:46:53;;;;;;;2.85;0.60;;;7.70;99.90;;;;;;5072452;28;20053;-72
2021/12/29 02:49:21;;;;;;;1.60;0.50;;;7.70;99.90;;;;;;5072478;28;20135;-72
2021/12/29 02:51:55;;;;;;;2.17;0.40;;;7.70;99.90;;;;;;5072232;28;20052;-72
2021/12/29 02:54:22;;;;;;;1.30;0.40;;;7.80;99.90;;;;;;5072352;28;20512;-71
2021/12/29 02:56:54;;;;;;;1.27;0.40;;;7.80;99.90;;;;;;5072237;28;20048;-72
2021/12/29 02:59:22;;;;;;;5.15;0.63;;;7.70;99.90;;;;;;5072376;28;20052;-72
2021/12/29 03:01:49;;;;;;;4.82;0.80;;;7.80;99.90;;;;;;5072231;28;20049;-72
2021/12/29 03:04:18;;;;;;;1.02;0.40;;;7.80;99.90;;;;;;5071996;28;20508;-71
2021/12/29 03:06:47;;;;;;;0.77;0.25;;;7.80;99.90;;;;;;5072023;28;20048;-72
2021/12/29 03:09:19;;;;;;;1.70;0.40;;;7.80;99.90;;;;;;5071867;28;20106;-72
2021/12/29 03:11:51;;;;;;;0.68;0.40;;;7.70;99.90;;;;;;5072365;28;20060;-72
2021/12/29 03:14:22;;;;;;;2.00;0.50;;;7.80;99.90;;;;;;5071791;28;20140;-72
2021/12/29 03:16:52;;;;;;;0.52;0.28;;;7.80;99.90;;;;;;5071343;28;20044;-72
2021/12/29 03:19:20;;;;;;;0.70;0.30;;;7.80;99.90;;;;;;5072094;28;20479;-71
2021/12/29 03:21:47;;;;;;;2.80;0.50;;;7.90;99.90;;;;;;5071702;28;20080;-71
2021/12/29 03:24:15;;;;;;;1.48;0.40;;;7.90;99.90;;;;;;5071708;28;20090;-72
2021/12/29 03:26:44;;;;;;;0.60;0.50;;;7.90;99.90;;;;;;5071310;28;20045;-72
2021/12/29 03:29:11;;;;;;;0.82;0.40;;;7.90;99.90;;;;;;5071372;28;20105;-72
2021/12/29 03:31:39;;;;;;;1.65;0.50;;;7.90;99.90;;;;;;5071586;28;20099;-72
2021/12/29 03:34:17;;;;;;;1.73;0.68;;;7.90;99.90;;;;;;5071513;28;20095;-71
2021/12/29 03:36:44;;;;;;;1.20;0.40;;;7.90;99.90;;;;;;5071431;28;20059;-72
2021/12/29 03:39:14;;;;;;;5.97;0.57;;;8.00;99.90;;;;;;5071325;28;20048;-72
2021/12/29 03:41:42;;;;;;;3.00;0.45;;;7.90;99.90;;;;;;5074260;28;20086;-72
2021/12/29 03:44:09;;;;;;;1.60;0.30;;;7.90;99.90;;;;;;5084731;28;20131;-72
2021/12/29 03:46:39;;;;;;;1.95;0.63;;;7.90;99.90;;;;;;5090931;28;20120;-72
2021/12/29 03:49:06;;;;;;;0.90;0.45;;;7.90;99.90;;;;;;5091714;28;20135;-72
2021/12/29 03:51:36;;;;;;;1.02;0.30;;;7.90;99.90;;;;;;5091614;28;20135;-71
2021/12/29 03:54:05;;;;;;;1.58;0.52;;;8.00;99.90;;;;;;5091112;28;20048;-71
2021/12/29 03:56:34;;;;;;;1.90;0.50;;;7.90;99.90;;;;;;5091653;28;20056;-72
2021/12/29 03:59:03;;;;;;;0.50;0.30;;;8.00;99.90;;;;;;5091218;28;20048;-72
2021/12/29 04:01:30;;;;;;;1.17;0.65;;;7.90;99.90;;;;;;5080689;28;20056;-72
2021/12/29 04:04:01;;;;;;;2.08;1.17;;;8.00;99.90;;;;;;5074162;28;20043;-72
2021/12/29 04:06:28;;;;;;;3.83;0.65;;;8.00;99.90;;;;;;5074994;28;20503;-72
2021/12/29 04:08:55;;;;;;;1.38;0.60;;;7.90;99.90;;;;;;5070824;28;20471;-72
2021/12/29 04:11:22;;;;;;;0.47;0.38;;;8.00;99.90;;;;;;5054646;28;20455;-71
2021/12/29 04:13:50;;;;;;;1.60;0.52;;;7.90;99.90;;;;;;5069850;28;20484;-71
2021/12/29 04:16:18;;;;;;;2.17;0.50;;;7.90;99.90;;;;;;5071101;28;20139;-72
2021/12/29 04:19:05;;;;;;;1.80;0.50;;;7.90;99.90;;;;;;5070690;28;20110;-71
2021/12/29 04:21:36;;;;;;;0.93;0.30;;;7.90;99.90;;;;;;5061455;28;20061;-71
2021/12/29 04:24:03;;;;;;;2.38;0.43;;;7.90;99.90;;;;;;5050667;28;20141;-71
2021/12/29 04:26:32;;;;;;;0.70;0.30;;;7.90;99.90;;;;;;5050677;28;20092;-71
2021/12/29 04:28:59;;;;;;;1.17;0.55;;;8.00;99.90;;;;;;5050927;28;20092;-71
2021/12/29 04:31:30;;;;;;;2.13;0.55;;;7.90;99.90;;;;;;5050729;28;20478;-71
2021/12/29 04:33:58;;;;;;;2.83;0.60;;;7.90;99.90;;;;;;5050796;28;20053;-71
2021/12/29 04:36:30;;;;;;;1.63;0.60;;;7.90;99.90;;;;;;5050843;28;20465;-72
2021/12/29 04:39:01;;;;;;;0.60;0.40;;;7.90;99.90;;;;;;5050820;28;20049;-71
2021/12/29 04:41:30;;;;;;;2.45;0.93;;;7.90;99.90;;;;;;5050928;28;20118;-71
2021/12/29 04:43:57;;;;;;;0.90;0.60;;;8.00;99.90;;;;;;5050618;28;20049;-71
2021/12/29 04:46:35;;;;;;;1.73;0.65;;;7.90;99.90;;;;;;5051087;28;20053;-71
2021/12/29 04:49:04;;;;;;;2.80;0.90;;;8.00;99.90;;;;;;5050966;28;20075;-71
2021/12/29 04:51:36;;;;;;;2.72;0.63;;;8.00;99.90;;;;;;5050152;28;20111;-71
2021/12/29 04:54:10;;;;;;;1.60;0.60;;;8.00;99.90;;;;;;5050893;28;20080;-71
2021/12/29 04:56:37;;;;;;;1.98;0.60;;;8.00;99.90;;;;;;5050199;28;20045;-71
2021/12/29 04:59:04;;;;;;;1.15;0.50;;;8.00;99.90;;;;;;5054418;28;20049;-71
2021/12/29 05:01:35;;;;;;;2.53;0.70;;;8.00;99.90;;;;;;5054662;28;20081;-71
2021/12/29 05:04:07;;;;;;;2.70;0.80;;;8.00;99.90;;;;;;5055315;28;20505;-71
2021/12/29 05:09:22;;;;;;;3.13;0.88;;;8.00;99.90;;;;;;5054626;28;20118;-70
2021/12/29 05:11:50;;;;;;;3.33;1.23;;;8.00;99.90;;;;;;5054582;28;20053;-71
2021/12/29 05:14:23;;;;;;;3.33;0.80;;;8.00;99.90;;;;;;5054302;28;20128;-71
2021/12/29 05:16:50;;;;;;;1.65;0.50;;;8.00;99.90;;;;;;5054333;28;20049;-71
2021/12/29 05:19:19;;;;;;;4.50;0.65;;;8.00;99.90;;;;;;5054353;28;20087;-71
2021/12/29 05:21:48;;;;;;;1.05;0.65;;;7.90;99.90;;;;;;5053819;28;20492;-71
2021/12/29 05:24:15;;;;;;;1.35;0.70;;;7.90;99.90;;;;;;5054198;28;20044;-71
2021/12/29 05:26:45;;;;;;;1.33;0.60;;;7.90;99.90;;;;;;5053922;28;20536;-71
2021/12/29 05:29:15;;;;;;;1.20;0.60;;;7.90;99.90;;;;;;5054349;28;20102;-71
2021/12/29 05:31:43;;;;;;;1.10;0.50;;;8.00;99.90;;;;;;5053942;28;20053;-71
2021/12/29 05:34:13;;;;;;;3.50;0.70;;;8.00;99.90;;;;;;5053833;28;20467;-70
2021/12/29 05:36:42;;;;;;;1.08;0.52;;;8.00;99.90;;;;;;5053673;28;20107;-71
2021/12/29 05:39:09;;;;;;;2.17;0.60;;;8.00;99.90;;;;;;5054083;28;20057;-71
2021/12/29 05:41:36;;;;;;;1.85;0.60;;;8.00;99.90;;;;;;5053694;28;20431;-71
2021/12/29 05:44:06;;;;;;;2.25;1.08;;;8.00;99.90;;;;;;5053863;28;20386;-71
2021/12/29 05:46:33;;;;;;;1.20;0.60;;;8.00;99.90;;;;;;5053658;28;20447;-71
2021/12/29 05:49:00;;;;;;;1.75;0.50;;;8.00;99.90;;;;;;5053508;28;20161;-70
2021/12/29 05:51:30;;;;;;;3.33;1.10;;;8.00;99.90;;;;;;5054045;28;20111;-71
2021/12/29 05:54:00;;;;;;;3.28;0.80;;;8.00;99.90;;;;;;5054000;28;20103;-71
2021/12/29 05:56:27;;;;;;;4.68;1.13;;;8.00;99.90;;;;;;5053542;28;20087;-70
2021/12/29 05:58:56;;;;;;;1.75;0.60;;;8.00;99.90;;;;;;5053834;28;20841;-70
2021/12/29 06:01:25;;;;;;;1.58;0.70;;;8.00;99.90;;;;;;5053425;28;20135;-70
2021/12/29 06:03:52;;;;;;;0.98;0.68;;;8.00;99.90;;;;;;5053588;28;20492;-71
2021/12/29 06:06:19;;;;;;;1.52;0.63;;;7.90;99.90;;;;;;5053367;28;20086;-70
2021/12/29 06:08:48;;;;;;;2.30;0.90;;;8.00;99.90;;;;;;5052909;28;20092;-70
2021/12/29 06:11:19;;;;;;;4.10;0.80;;;8.00;99.90;;;;;;5053416;28;20128;-70
2021/12/29 06:13:46;;;;;;;0.90;0.60;;;8.00;99.90;;;;;;5053416;28;20467;-70
2021/12/29 06:16:14;;;;;;;2.08;0.73;;;8.00;99.90;;;;;;5052886;28;20505;-70
2021/12/29 06:18:41;;;;;;;7.47;1.83;;;8.00;99.90;;;;;;5053410;28;20045;-71
2021/12/29 06:21:08;;;;;;;1.58;0.75;;;8.00;99.90;;;;;;5052883;28;20088;-70
2021/12/29 06:23:38;;;;;;;1.95;0.68;;;8.00;99.90;;;;;;5053406;28;20085;-70
2021/12/29 06:26:04;;;;;;;3.88;1.05;;;8.00;99.90;;;;;;5052893;28;20507;-70
2021/12/29 06:28:33;;;;;;;2.88;0.80;;;7.90;99.90;;;;;;5052817;28;20137;-70
2021/12/29 06:31:02;;;;;;;3.63;0.77;;;8.00;99.90;;;;;;5052795;28;20568;-70
2021/12/29 06:33:28;;;;;;;1.42;0.80;;;8.00;99.90;;;;;;5053832;28;20055;-71
2021/12/29 06:35:55;;;;;;;2.08;0.77;;;8.00;99.90;;;;;;5052805;28;20076;-70
2021/12/29 06:38:22;;;;;;;1.10;0.57;;;8.00;99.90;;;;;;5052989;28;20057;-70
2021/12/29 06:40:50;;;;;;;1.15;0.55;;;8.00;99.90;;;;;;5052589;28;20081;-71
2021/12/29 06:43:17;;;;;;;2.13;0.70;;;7.90;99.90;;;;;;5052591;28;20089;-71
2021/12/29 06:45:45;;;;;;;2.92;0.60;;;7.90;99.90;;;;;;5052742;28;20087;-71
2021/12/29 06:48:12;;;;;;;0.98;0.60;;;8.00;99.90;;;;;;5052742;28;20413;-71
2021/12/29 06:50:42;;;;;;;1.35;0.77;;;7.90;99.90;;;;;;5052547;28;20076;-71
2021/12/29 06:53:13;;;;;;;1.75;0.60;;;8.00;99.90;;;;;;5052678;28;20060;-71
2021/12/29 06:55:43;;;;;;;1.83;0.80;;;8.00;99.90;;;;;;5052409;28;20084;-71
2021/12/29 06:58:10;;;;;;;2.20;0.75;;;8.00;99.90;;;;;;5052708;28;20053;-70
2021/12/29 07:00:37;;;;;;;2.35;0.88;;;7.90;99.90;;;;;;5052279;28;20103;-71
2021/12/29 07:03:06;;;;;;;0.70;0.52;;;7.90;99.90;;;;;;5052409;28;20048;-71
2021/12/29 07:05:35;;;;;;;1.08;0.60;;;7.90;99.90;;;;;;5052153;28;20080;-70
2021/12/29 07:08:07;;;;;;;1.60;0.57;;;8.00;99.90;;;;;;5052147;28;20049;-70
2021/12/29 07:10:34;;;;;;;1.67;0.50;;;7.90;99.90;;;;;;5052326;28;20088;-70
2021/12/29 07:13:01;;;;;;;1.75;0.68;;;7.90;99.90;;;;;;5052079;28;20485;-70
2021/12/29 07:15:28;;;;;;;2.03;0.60;;;7.90;99.90;;;;;;5052010;28;20106;-70
2021/12/29 07:17:55;;;;;;;1.75;0.60;;;7.90;99.90;;;;;;5051889;28;20091;-70
2021/12/29 07:20:26;;;;;;;1.95;0.88;;;7.90;99.90;;;;;;5051875;28;20132;-70
2021/12/29 07:22:53;;;;;;;1.50;0.68;;;7.90;99.90;;;;;;5051415;28;20099;-70
2021/12/29 07:25:22;;;;;;;2.40;0.80;;;7.90;99.90;;;;;;5051890;28;20080;-70
2021/12/29 07:27:49;;;;;;;1.27;0.50;;;7.90;99.90;;;;;;5052082;28;20056;-70
2021/12/29 07:30:16;;;;;;;0.85;0.50;;;8.10;99.90;;;;;;5053020;28;20092;-70
2021/12/29 07:32:43;;;;;;;2.58;0.70;;;7.90;99.90;;;;;;5052294;28;20201;-70
2021/12/29 07:35:10;;;;;;;1.58;0.80;;;7.90;99.90;;;;;;5051399;28;20139;-70
2021/12/29 07:37:39;;;;;;;1.85;0.50;;;8.00;99.90;;;;;;5051677;28;20135;-70
2021/12/29 07:40:08;;;;;;;1.67;0.60;;;7.90;99.90;;;;;;5051944;28;20555;-70
2021/12/29 07:42:38;;;;;;;2.38;0.70;;;7.90;99.90;;;;;;5051696;28;20056;-70
2021/12/29 07:45:08;;;;;;;1.38;0.55;;;7.90;99.90;;;;;;5051351;28;20455;-70
2021/12/29 07:47:35;;;;;;;1.20;0.93;;;7.90;99.90;;;;;;5051555;28;20092;-70
2021/12/29 07:50:04;;;;;;;1.17;0.60;;;8.00;99.90;;;;;;5051614;28;20053;-70
2021/12/29 07:52:31;;;;;;;1.02;0.60;;;8.00;99.90;;;;;;5130468;22;20072;-72
2021/12/29 07:55:00;;;;;;;1.75;0.77;;;8.00;99.90;;;;;;5015807;28;20053;-76
2021/12/29 07:57:28;;;;;;;0.45;0.45;;;8.00;99.90;;;;;;5015668;28;20119;-76
2021/12/29 07:59:55;;;;;;;0.93;0.57;;;8.00;99.90;;;;;;5016077;28;20096;-76
2021/12/29 08:02:27;;;;;;;0.63;0.60;;;7.90;99.90;;;;;;5016075;28;20121;-73
2021/12/29 08:04:55;;;;;;;0.90;0.65;;;7.90;99.90;;;;;;5016019;28;20062;-74
2021/12/29 08:07:22;;;;;;;1.55;0.70;;;7.90;99.90;;;;;;5015956;28;20049;-76
2021/12/29 08:09:49;;;;;;;2.10;0.88;;;8.00;99.90;;;;;;5016045;28;20457;-74
2021/12/29 08:12:17;;;;;;;2.03;0.63;;;8.00;99.90;;;;;;5015797;28;20057;-75
2021/12/29 08:14:45;;;;;;;2.47;0.60;;;8.00;99.90;;;;;;5015340;28;20050;-74
2021/12/29 08:17:12;;;;;;;1.65;0.95;;;8.00;99.90;;;;;;5015436;28;20054;-75
2021/12/29 08:19:40;;;;;;;4.25;0.80;;;8.00;99.90;;;;;;5015619;28;20061;-74
2021/12/29 08:22:07;;;;;;;2.55;0.75;;;8.00;99.90;;;;;;5016371;28;20050;-76
2021/12/29 08:24:34;;;;;;;1.75;0.80;;;8.00;99.90;;;;;;5015377;28;20502;-74
2021/12/29 08:27:01;;;;;;;1.88;0.80;;;8.00;99.90;;;;;;5016264;28;20053;-74
2021/12/29 08:29:29;;;;;;;1.02;0.55;;;8.00;99.90;;;;;;5016695;28;20078;-74
2021/12/29 08:31:57;;;;;;;2.05;0.60;;;8.00;99.90;;;;;;5016915;28;20084;-74
2021/12/29 08:34:25;;;;;;;3.00;0.80;;;8.00;99.90;;;;;;5016209;28;20108;-75
2021/12/29 08:36:54;;;;;;;1.70;0.70;;;8.00;99.90;;;;;;5016361;28;20061;-76
2021/12/29 08:39:23;;;;;;;1.40;0.80;;;8.10;99.90;;;;;;5016007;28;20104;-73
2021/12/29 08:41:50;;;;;;;1.55;0.77;;;8.10;99.90;;;;;;5014976;28;20042;-73
2021/12/29 08:44:20;;;;;;;1.48;0.82;;;8.10;99.90;;;;;;5015855;28;20100;-73
2021/12/29 08:46:49;;;;;;;2.90;0.95;;;8.00;99.90;;;;;;5015325;28;20056;-74
2021/12/29 08:49:19;;;;;;;4.28;0.90;;;8.10;99.90;;;;;;5015337;28;20054;-73
2021/12/29 08:51:46;;;;;;;3.30;0.80;;;8.00;99.90;;;;;;5015486;28;20561;-73
2021/12/29 08:54:13;;;;;;;1.42;0.70;;;8.00;99.90;;;;;;5016512;28;20085;-74
2021/12/29 08:56:41;;;;;;;3.80;1.15;;;8.10;99.90;;;;;;5016173;28;20089;-73
2021/12/29 08:59:08;;;;;;;2.33;1.42;;;8.20;99.90;;;;;;5015333;28;20100;-76
2021/12/29 09:01:35;;;;;;;4.68;1.52;;;8.40;99.90;;;;;;5015945;28;20058;-73
2021/12/29 09:04:05;;;;;;;1.20;0.77;;;8.40;99.90;;;;;;5015491;28;20050;-77
2021/12/29 09:06:34;;;;;;;0.60;0.43;;;8.50;99.90;;;;;;5015700;28;20050;-76
2021/12/29 09:09:02;;;;;;;1.63;0.95;;;8.70;99.90;;;;;;5015043;28;20482;-73
2021/12/29 09:11:30;;;;;;;2.60;0.70;;;9.20;99.90;;;;;;5014788;28;20108;-74
2021/12/29 09:13:57;;;;;;;1.95;0.60;;;9.30;99.90;;;;;;5013375;28;20140;-74
2021/12/29 09:16:24;;;;;;;2.00;0.77;;;9.10;99.90;;;;;;5014220;28;20086;-73
2021/12/29 09:18:51;;;;;;;2.30;1.00;;;10.40;99.90;;;;;;5013848;28;20104;-75
2021/12/29 09:21:20;;;;;;;1.15;0.60;;;10.50;99.90;;;;;;5013205;28;20073;-72
2021/12/29 09:23:48;;;;;;;3.85;0.80;;;10.20;99.90;;;;;;5013199;28;20054;-75
2021/12/29 09:26:17;;;;;;;2.90;0.90;;;9.90;99.90;;;;;;5014432;28;20498;-71
2021/12/29 09:28:47;;;;;;;4.28;1.10;;;9.60;99.90;;;;;;5012663;28;20077;-72
2021/12/29 09:31:14;;;;;;;4.07;1.58;;;9.50;99.90;;;;;;5012295;28;20153;-74
2021/12/29 09:33:42;;;;;;;3.10;1.42;;;9.50;99.90;;;;;;5012728;28;20406;-71
2021/12/29 09:36:09;;;;;;;2.60;1.20;;;9.50;99.90;;;;;;5012049;28;20481;-72
2021/12/29 09:38:40;;;;;;;3.30;1.05;;;9.30;99.90;;;;;;5012864;28;20082;-74
2021/12/29 09:41:09;;;;;;;4.53;1.40;;;9.20;99.90;;;;;;5012935;28;20552;-73
2021/12/29 09:43:36;;;;;;;1.92;0.95;;;9.20;99.90;;;;;;5013020;28;20180;-72
2021/12/29 09:46:03;;;;;;;2.15;1.10;;;9.30;99.90;;;;;;5015682;28;20089;-75
2021/12/29 09:48:30;;;;;;;1.80;0.80;;;9.30;99.90;;;;;;5015074;28;20046;-73
2021/12/29 09:51:01;;;;;;;2.13;0.90;;;9.30;99.90;;;;;;5015857;28;20049;-73
2021/12/29 09:53:28;;;;;;;1.95;0.70;;;10.20;99.90;;;;;;5015895;28;20100;-72
2021/12/29 09:55:57;;;;;;;3.75;0.80;;;12.00;99.90;;;;;;5015326;28;20116;-72
2021/12/29 09:58:26;;;;;;;1.02;0.70;;;11.90;99.90;;;;;;5015824;28;20665;-72
2021/12/29 10:00:57;;;;;;;1.45;0.70;;;10.50;99.90;;;;;;5014500;28;20050;-73
2021/12/29 10:03:26;;;;;;;1.40;0.60;;;10.10;99.90;;;;;;5012730;28;20072;-76
2021/12/29 10:05:54;;;;;;;2.38;0.70;;;10.00;99.90;;;;;;5011233;28;20480;-72
2021/12/29 10:08:28;;;;;;;2.95;0.82;;;10.30;99.90;;;;;;5011660;28;20421;-73
2021/12/29 10:10:59;;;;;;;3.00;0.80;;;10.10;99.90;;;;;;5011710;28;20416;-73
2021/12/29 10:13:29;;;;;;;2.08;0.95;;;9.80;99.90;;;;;;5012579;28;20046;-73
2021/12/29 10:16:01;;;;;;;1.92;0.85;;;9.80;99.90;;;;;;5012090;28;20046;-72
2021/12/29 10:18:30;;;;;;;2.13;0.95;;;9.60;99.90;;;;;;5014542;28;20100;-73
2021/12/29 10:21:00;;;;;;;3.08;1.10;;;9.70;99.90;;;;;;5016361;28;20050;-72
2021/12/29 10:23:29;;;;;;;1.58;0.90;;;9.60;99.90;;;;;;5016592;28;20054;-72
2021/12/29 10:26:04;;;;;;;4.63;1.30;;;9.60;99.90;;;;;;5015234;28;20054;-73
2021/12/29 10:28:33;;;;;;;2.42;0.98;;;9.40;99.90;;;;;;5016172;28;20482;-71
2021/12/29 10:31:07;;;;;;;1.92;0.82;;;9.40;99.90;;;;;;5015675;28;20407;-71
2021/12/29 10:33:36;;;;;;;2.83;1.00;;;9.40;99.90;;;;;;5015633;28;20589;-72
2021/12/29 10:36:21;;;;;;;0.85;0.68;;;9.40;99.90;;;;;;5015192;28;20506;-73
2021/12/29 10:38:54;;;;;;;1.75;0.88;;;9.50;99.90;;;;;;5015232;28;20486;-71
2021/12/29 10:41:23;;;;;;;2.78;0.60;;;9.60;99.90;;;;;;5014519;28;20104;-71
2021/12/29 10:43:57;;;;;;;2.03;0.90;;;9.70;99.90;;;;;;5015004;28;20077;-71
2021/12/29 10:46:26;;;;;;;1.73;0.75;;;9.70;99.90;;;;;;5014242;28;20053;-74
2021/12/29 10:48:54;;;;;;;1.92;0.75;;;9.80;99.90;;;;;;5014512;28;20109;-73
2021/12/29 10:51:29;;;;;;;1.90;0.70;;;9.90;99.90;;;;;;5014829;28;20054;-75
2021/12/29 10:54:09;;;;;;;1.40;0.77;;;10.00;99.90;;;;;;5014050;28;20080;-74
2021/12/29 10:56:39;;;;;;;2.35;0.95;;;10.00;99.90;;;;;;5015224;28;20057;-73
2021/12/29 10:59:19;;;;;;;2.88;1.20;;;9.90;99.90;;;;;;5014240;28;20042;-73
2021/12/29 11:01:47;;;;;;;3.38;1.00;;;9.90;99.90;;;;;;5013893;28;20567;-72
2021/12/29 11:04:16;;;;;;;1.65;0.90;;;9.80;99.90;;;;;;5014822;28;20046;-75
2021/12/29 11:06:46;;;;;;;1.40;0.70;;;9.70;99.90;;;;;;5014600;28;20148;-74
2021/12/29 11:09:15;;;;;;;2.08;1.00;;;9.70;99.90;;;;;;5014861;28;20042;-75
2021/12/29 11:11:45;;;;;;;2.70;1.17;;;9.70;99.90;;;;;;5014816;28;20093;-71
2021/12/29 11:14:14;;;;;;;1.33;0.80;;;9.70;99.90;;;;;;5014488;28;20399;-71
2021/12/29 11:16:48;;;;;;;0.93;0.70;;;9.80;99.90;;;;;;5014477;28;20080;-72
2021/12/29 11:19:20;;;;;;;4.43;1.33;;;9.60;99.90;;;;;;5015113;28;20050;-71
2021/12/29 11:21:47;;;;;;;5.30;0.75;;;9.60;99.90;;;;;;5014616;28;20053;-71
2021/12/29 11:24:16;;;;;;;2.13;0.80;;;9.80;99.90;;;;;;5014226;28;20395;-71
2021/12/29 11:26:45;;;;;;;1.95;1.00;;;9.90;99.90;;;;;;5013412;28;20054;-70
2021/12/29 11:29:15;;;;;;;2.55;1.00;;;10.00;99.90;;;;;;5013347;28;20065;-70
2021/12/29 11:31:44;;;;;;;3.05;1.00;;;9.90;99.90;;;;;;5014096;28;20428;-71
2021/12/29 11:34:20;;;;;;;4.32;0.93;;;10.10;99.90;;;;;;5013719;28;20494;-70
2021/12/29 11:37:02;;;;;;;2.15;1.10;;;10.10;99.90;;;;;;5013238;28;20501;-72
2021/12/29 11:39:30;;;;;;;6.25;1.17;;;10.10;99.90;;;;;;5013445;28;20054;-73
2021/12/29 11:41:59;;;;;;;3.97;1.13;;;10.10;99.90;;;;;;5012429;28;20050;-75
2021/12/29 11:44:26;;;;;;;1.92;1.00;;;10.20;99.90;;;;;;5011676;28;20085;-73
2021/12/29 11:46:53;;;;;;;1.83;0.88;;;10.20;99.90;;;;;;5011915;28;20054;-73
2021/12/29 11:49:21;;;;;;;2.13;1.10;;;10.30;99.90;;;;;;5011656;28;20046;-73
2021/12/29 11:51:58;;;;;;;2.28;1.00;;;10.20;99.90;;;;;;5012590;28;20589;-74
2021/12/29 11:54:38;;;;;;;2.35;1.10;;;10.10;99.90;;;;;;5013084;28;20412;-72
2021/12/29 11:57:18;;;;;;;1.95;1.00;;;10.20;99.90;;;;;;5012099;28;20046;-72
2021/12/29 11:59:46;;;;;;;4.38;1.60;;;10.50;99.90;;;;;;5013273;28;20053;-74
2021/12/29 12:02:24;;;;;;;6.45;1.50;;;10.10;99.90;;;;;;5014377;28;20050;-70
2021/12/29 12:05:01;;;;;;;5.63;1.80;;;10.30;99.90;;;;;;5013039;28;20054;-71
2021/12/29 12:07:28;;;;;;;5.80;2.13;;;10.40;99.90;;;;;;5012246;28;20129;-72
2021/12/29 12:09:57;;;;;;;3.03;1.45;;;10.30;99.90;;;;;;5012521;28;20373;-71
2021/12/29 12:12:35;;;;;;;3.88;1.35;;;10.30;99.90;;;;;;5012445;28;20053;-71
2021/12/29 12:15:07;;;;;;;4.75;1.80;;;10.30;99.90;;;;;;5011984;28;20049;-71
2021/12/29 12:17:34;;;;;;;3.38;1.30;;;10.20;99.90;;;;;;5012641;28;20526;-70
2021/12/29 12:20:08;;;;;;;3.88;1.40;;;9.80;99.90;;;;;;5013488;28;20104;-70
2021/12/29 12:22:44;;;;;;;3.05;1.75;;;9.80;99.90;;;;;;5013152;28;20100;-70
2021/12/29 12:25:12;;;;;;;4.47;1.63;;;9.70;99.90;;;;;;5012746;28;20100;-71
2021/12/29 12:27:43;;;;;;;4.60;1.88;;;9.50;99.90;;;;;;5013852;28;20049;-71
2021/12/29 12:30:14;;;;;;;3.53;1.52;;;9.50;99.90;;;;;;5012961;28;20092;-70
2021/12/29 12:32:43;;;;;;;3.58;1.33;;;9.40;99.90;;;;;;5013662;28;20148;-72
2021/12/29 12:35:12;;;;;;;4.75;1.63;;;9.40;99.90;;;;;;5013519;28;20449;-72
2021/12/29 12:37:45;;;;;;;3.63;1.77;;;9.40;99.90;;;;;;5013352;28;20413;-73
2021/12/29 12:40:23;;;;;;;2.85;1.20;;;9.40;99.90;;;;;;5013716;28;20057;-73
2021/12/29 12:43:03;;;;;;;4.88;1.50;;;9.30;99.90;;;;;;5013977;28;20049;-74
2021/12/29 12:45:36;;;;;;;4.55;1.80;;;9.30;99.90;;;;;;5012990;28;20049;-71
2021/12/29 12:48:09;;;;;;;4.45;1.30;;;9.20;99.90;;;;;;5013521;28;20457;-70
2021/12/29 12:50:38;;;;;;;2.92;1.30;;;9.20;99.90;;;;;;5013384;28;20054;-71
2021/12/29 12:53:06;;;;;;;5.70;1.55;;;9.20;99.90;;;;;;5013397;28;20371;-70
2021/12/29 12:55:44;;;;;;;2.38;1.20;;;9.10;99.90;;;;;;5012615;28;20543;-70
2021/12/29 12:58:14;;;;;;;6.57;1.92;;;9.10;99.90;;;;;;5013751;28;20042;-71
2021/12/29 13:00:47;;;;;;;3.42;1.58;;;9.00;99.90;;;;;;5013206;28;20046;-70
2021/12/29 13:03:17;;;;;;;5.13;2.05;;;8.90;99.90;;;;;;5013895;28;20053;-71
2021/12/29 13:05:47;;;;;;;4.80;1.80;;;8.90;99.90;;;;;;5012276;28;20513;-70
2021/12/29 13:08:17;;;;;;;5.95;1.80;;;8.90;99.90;;;;;;5013146;28;20108;-70
2021/12/29 13:10:48;;;;;;;3.50;1.42;;;8.90;99.90;;;;;;5013371;28;20053;-71